Time;durP1;ratioP1;P1;durP2;ratioP2;P2;SDS_P1;SDS_P2;PMS_P1;PMS_P2;Temp;Humidity;BMP_temperature;BMP_pressure;BME280_temperature;BME280_humidity;BME280_pressure;Samples;Min_cycle;Max_cycle;Signal;HPM_P1;HPM_P2
2022/07/20 00:02:05;;;;;;;;;;;17.20;91.60;;;;;;5056700;28;19897;-84
2022/07/20 00:04:30;;;;;;;;;;;17.30;91.90;;;;;;5056700;28;19912;-84
2022/07/20 00:06:56;;;;;;;;;;;17.30;91.80;;;;;;5056928;28;20016;-84
2022/07/20 00:12:06;;;;;;;;;;;17.10;92.50;;;;;;5057085;28;19919;-85
2022/07/20 00:14:32;;;;;;;;;;;16.90;93.60;;;;;;5075555;28;19916;-85
2022/07/20 00:16:57;;;;;;;;;;;17.00;93.20;;;;;;5076226;28;19913;-84
2022/07/20 00:19:23;;;;;;;;;;;16.90;94.40;;;;;;5077460;28;19901;-84
2022/07/20 00:21:48;;;;;;;;;;;16.90;94.00;;;;;;5062458;28;19901;-84
2022/07/20 00:24:14;;;;;;;;;;;16.90;94.20;;;;;;5058095;28;19898;-84
2022/07/20 00:26:39;;;;;;;;;;;16.90;94.80;;;;;;5078816;28;19901;-84
2022/07/20 00:29:05;;;;;;;;;;;16.80;95.10;;;;;;5079664;28;19908;-85
2022/07/20 00:31:30;;;;;;;;;;;16.70;95.60;;;;;;5079274;28;19967;-85
2022/07/20 00:33:56;;;;;;;;;;;16.70;95.30;;;;;;5061150;28;19904;-82
2022/07/20 00:36:21;;;;;;;;;;;16.60;95.90;;;;;;5060099;28;19909;-85
2022/07/20 00:38:47;;;;;;;;;;;16.50;96.50;;;;;;5059561;28;19953;-84
2022/07/20 00:41:13;;;;;;;;;;;16.40;97.70;;;;;;5060077;28;19898;-85
2022/07/20 00:43:54;;;;;;;;;;;16.40;99.20;;;;;;5059679;28;19897;-84
2022/07/20 00:46:20;;;;;;;;;;;16.40;99.00;;;;;;5059649;28;19921;-84
2022/07/20 00:48:45;;;;;;;;;;;16.70;98.00;;;;;;5060107;28;19972;-85
2022/07/20 00:51:11;;;;;;;;;;;16.80;97.90;;;;;;5060192;28;19904;-84
2022/07/20 00:53:36;;;;;;;;;;;16.60;98.40;;;;;;5059248;28;19898;-84
2022/07/20 00:56:02;;;;;;;;;;;16.60;98.60;;;;;;5056043;28;19909;-84
2022/07/20 00:58:28;;;;;;;;;;;16.50;99.50;;;;;;5069446;28;19902;-85
2022/07/20 01:00:53;;;;;;;;;;;16.50;99.90;;;;;;5058913;28;19936;-82
2022/07/20 01:03:19;;;;;;;;;;;16.50;99.90;;;;;;5069055;28;19904;-84
2022/07/20 01:05:44;;;;;;;;;;;16.40;99.90;;;;;;5078828;28;19963;-85
2022/07/20 01:08:10;;;;;;;;;;;16.30;99.90;;;;;;5078678;28;19939;-84
2022/07/20 01:10:35;;;;;;;;;;;16.30;99.90;;;;;;5078889;28;19896;-85
2022/07/20 01:13:01;;;;;;;;;;;16.20;99.90;;;;;;5078523;28;19897;-84
2022/07/20 01:15:26;;;;;;;;;;;16.10;99.90;;;;;;5078436;28;19959;-84
2022/07/20 01:17:52;;;;;;;;;;;16.10;99.90;;;;;;5065585;28;19920;-84
2022/07/20 01:20:18;;;;;;;;;;;16.10;99.90;;;;;;5065643;28;19897;-84
2022/07/20 01:22:46;;;;;;;;;;;16.20;99.90;;;;;;5077623;28;19901;-84
2022/07/20 01:25:12;;;;;;;;;;;16.30;99.90;;;;;;5078017;28;19909;-82
2022/07/20 01:27:38;;;;;;;;;;;16.30;99.90;;;;;;5078383;28;19936;-84
2022/07/20 01:30:04;;;;;;;;;;;16.20;99.90;;;;;;5078045;28;19932;-84
2022/07/20 01:32:29;;;;;;;;;;;16.10;99.90;;;;;;5077416;28;19901;-84
2022/07/20 01:34:55;;;;;;;;;;;16.20;99.90;;;;;;5063097;28;19960;-84
2022/07/20 01:37:20;;;;;;;;;;;16.40;99.90;;;;;;5059209;28;19897;-84
2022/07/20 01:39:46;;;;;;;;;;;16.40;99.90;;;;;;5058951;28;19897;-85
2022/07/20 01:42:11;;;;;;;;;;;16.10;99.90;;;;;;5058763;28;19928;-84
2022/07/20 01:44:36;;;;;;;;;;;16.10;99.90;;;;;;5058807;28;19912;-84
2022/07/20 01:47:02;;;;;;;;;;;16.30;99.90;;;;;;5074215;28;19920;-85
2022/07/20 01:49:27;;;;;;;;;;;16.40;99.90;;;;;;5045060;28;19956;-84
2022/07/20 01:51:53;;;;;;;;;;;16.50;99.90;;;;;;5068397;28;19901;-81
2022/07/20 01:54:19;;;;;;;;;;;16.40;99.90;;;;;;5077441;28;19901;-84
2022/07/20 01:56:44;;;;;;;;;;;16.30;99.90;;;;;;5077967;28;19903;-84
2022/07/20 01:59:10;;;;;;;;;;;16.20;99.90;;;;;;5077993;28;19897;-84
2022/07/20 02:01:36;;;;;;;;;;;16.10;99.90;;;;;;5077066;28;20231;-84
2022/07/20 02:04:02;;;;;;;;;;;16.20;99.90;;;;;;5065594;28;19909;-84
2022/07/20 02:06:28;;;;;;;;;;;16.30;99.90;;;;;;5056397;28;20022;-84
2022/07/20 02:08:53;;;;;;;;;;;16.40;99.90;;;;;;5060382;28;19905;-85
2022/07/20 02:11:18;;;;;;;;;;;16.40;99.90;;;;;;5066631;28;19897;-84
2022/07/20 02:13:44;;;;;;;;;;;16.30;99.90;;;;;;5057963;28;19901;-84
2022/07/20 02:16:15;;;;;;;;;;;16.30;99.90;;;;;;5058475;28;19923;-84
2022/07/20 02:18:45;;;;;;;;;;;16.30;99.90;;;;;;5061952;28;19913;-84
2022/07/20 02:21:10;;;;;;;;;;;16.30;99.90;;;;;;5054658;28;19905;-84
2022/07/20 02:23:36;;;;;;;;;;;16.10;99.90;;;;;;5074594;28;19920;-84
2022/07/20 02:26:02;;;;;;;;;;;16.10;99.90;;;;;;5076776;28;19909;-81
2022/07/20 02:28:27;;;;;;;;;;;16.10;99.90;;;;;;5077176;28;19929;-85
2022/07/20 02:30:53;;;;;;;;;;;16.00;99.90;;;;;;5077078;28;19897;-85
2022/07/20 02:33:18;;;;;;;;;;;15.90;99.90;;;;;;5076334;28;19947;-84
2022/07/20 02:35:44;;;;;;;;;;;15.90;99.90;;;;;;5077546;28;19913;-83
2022/07/20 02:38:09;;;;;;;;;;;15.80;99.90;;;;;;5076952;28;19927;-83
2022/07/20 02:40:35;;;;;;;;;;;15.60;99.90;;;;;;5067953;28;19944;-85
2022/07/20 02:43:00;;;;;;;;;;;15.50;99.90;;;;;;5065977;28;19901;-85
2022/07/20 02:45:26;;;;;;;;;;;15.40;99.90;;;;;;5076601;28;19901;-84
2022/07/20 02:47:51;;;;;;;;;;;15.50;99.90;;;;;;5066356;28;19905;-84
2022/07/20 02:50:17;;;;;;;;;;;15.30;99.90;;;;;;5059695;28;19992;-85
2022/07/20 02:52:42;;;;;;;;;;;15.40;99.90;;;;;;5056972;28;19901;-85
2022/07/20 02:55:08;;;;;;;;;;;15.30;99.90;;;;;;5057253;28;19920;-84
2022/07/20 02:57:34;;;;;;;;;;;15.30;99.90;;;;;;5064450;28;19928;-85
2022/07/20 03:00:00;;;;;;;;;;;15.10;99.90;;;;;;5076272;28;19913;-85
2022/07/20 03:02:25;;;;;;;;;;;15.30;99.90;;;;;;5057075;28;19902;-84
2022/07/20 03:04:51;;;;;;;;;;;15.30;99.90;;;;;;5057211;28;19932;-85
2022/07/20 03:07:16;;;;;;;;;;;15.30;99.90;;;;;;5057327;28;19904;-85
2022/07/20 03:09:42;;;;;;;;;;;15.10;99.90;;;;;;5070577;28;19905;-84
2022/07/20 03:12:08;;;;;;;;;;;15.10;99.90;;;;;;5057353;28;19908;-85
2022/07/20 03:14:34;;;;;;;;;;;15.00;99.90;;;;;;5057151;28;19909;-85
2022/07/20 03:16:59;;;;;;;;;;;15.00;99.90;;;;;;5057082;28;19932;-85
2022/07/20 03:19:25;;;;;;;;;;;15.10;99.90;;;;;;5061339;28;19921;-85
2022/07/20 03:21:50;;;;;;;;;;;15.10;99.90;;;;;;5067207;28;19908;-83
2022/07/20 03:24:16;;;;;;;;;;;15.00;99.90;;;;;;5058475;28;19901;-85
2022/07/20 03:26:41;;;;;;;;;;;15.10;99.90;;;;;;5057323;28;19920;-84
2022/07/20 03:29:07;;;;;;;;;;;15.00;99.90;;;;;;5061316;28;19925;-78
2022/07/20 03:31:32;;;;;;;;;;;15.00;99.90;;;;;;5075923;28;19905;-84
2022/07/20 03:33:58;;;;;;;;;;;15.00;99.90;;;;;;5052203;28;19943;-82
2022/07/20 03:36:23;;;;;;;;;;;14.90;99.90;;;;;;5057354;28;19901;-85
2022/07/20 03:38:49;;;;;;;;;;;14.90;99.90;;;;;;5057286;28;19897;-85
2022/07/20 03:41:14;;;;;;;;;;;14.80;99.90;;;;;;5057100;28;19924;-85
2022/07/20 03:43:39;;;;;;;;;;;14.90;99.90;;;;;;5056588;28;19957;-85
2022/07/20 03:46:05;;;;;;;;;;;14.80;99.90;;;;;;5066131;28;19969;-85
2022/07/20 03:48:31;;;;;;;;;;;14.70;99.90;;;;;;5059861;28;19905;-84
2022/07/20 03:50:56;;;;;;;;;;;14.60;99.90;;;;;;5053358;28;19909;-85
2022/07/20 03:53:22;;;;;;;;;;;14.60;99.90;;;;;;5075376;28;19935;-83
2022/07/20 03:55:47;;;;;;;;;;;14.70;99.90;;;;;;5079987;28;19897;-85
2022/07/20 03:58:13;;;;;;;;;;;14.70;99.90;;;;;;5080232;28;19897;-84
2022/07/20 04:00:38;;;;;;;;;;;14.60;99.90;;;;;;5080049;28;19908;-83
2022/07/20 04:03:04;;;;;;;;;;;14.60;99.90;;;;;;5072038;28;20144;-84
2022/07/20 04:05:29;;;;;;;;;;;14.80;99.90;;;;;;5073026;28;19928;-81
2022/07/20 04:07:54;;;;;;;;;;;14.80;99.90;;;;;;5079773;28;19931;-85
2022/07/20 04:10:20;;;;;;;;;;;14.80;99.90;;;;;;5073730;28;19901;-85
2022/07/20 04:12:45;;;;;;;;;;;14.80;99.90;;;;;;5059937;28;19897;-85
2022/07/20 04:15:11;;;;;;;;;;;14.90;99.90;;;;;;5060061;28;19916;-84
2022/07/20 04:17:39;;;;;;;;;;;14.80;99.90;;;;;;5059726;28;19902;-85
2022/07/20 04:20:04;;;;;;;;;;;14.90;99.90;;;;;;5065880;28;19897;-84
2022/07/20 04:22:30;;;;;;;;;;;15.10;99.90;;;;;;5060168;28;19898;-85
2022/07/20 04:24:55;;;;;;;;;;;15.20;99.90;;;;;;5059953;28;19966;-84
2022/07/20 04:27:21;;;;;;;;;;;15.30;99.90;;;;;;5071534;28;19905;-84
2022/07/20 04:29:46;;;;;;;;;;;15.30;99.90;;;;;;5074703;28;19901;-83
2022/07/20 04:32:12;;;;;;;;;;;15.40;99.90;;;;;;5077423;28;19917;-85
2022/07/20 04:34:37;;;;;;;;;;;15.40;99.90;;;;;;5078843;28;19960;-85
2022/07/20 04:37:03;;;;;;;;;;;15.40;99.90;;;;;;5079358;28;19918;-84
2022/07/20 04:39:29;;;;;;;;;;;15.40;99.90;;;;;;5079426;28;19917;-83
2022/07/20 04:41:54;;;;;;;;;;;15.40;99.90;;;;;;5079024;28;19904;-85
2022/07/20 04:44:20;;;;;;;;;;;15.50;99.90;;;;;;5078665;28;19904;-84
2022/07/20 04:46:45;;;;;;;;;;;15.70;99.90;;;;;;5064398;28;19908;-84
2022/07/20 04:49:11;;;;;;;;;;;15.80;99.90;;;;;;5070532;28;19904;-84
2022/07/20 04:51:36;;;;;;;;;;;15.90;99.90;;;;;;5060943;28;19909;-83
2022/07/20 04:54:02;;;;;;;;;;;15.90;99.90;;;;;;5076868;22;19925;-83
2022/07/20 04:56:28;;;;;;;;;;;16.00;99.90;;;;;;5041140;28;19978;-84
2022/07/20 04:58:54;;;;;;;;;;;16.20;99.90;;;;;;5036052;28;19916;-84
2022/07/20 05:01:20;;;;;;;;;;;16.40;99.90;;;;;;5037224;28;19919;-83
2022/07/20 05:03:46;;;;;;;;;;;16.50;99.90;;;;;;5037091;28;19909;-84
2022/07/20 05:06:12;;;;;;;;;;;16.50;99.90;;;;;;5053910;28;20282;-84
2022/07/20 05:08:38;;;;;;;;;;;16.50;99.90;;;;;;5054071;28;20008;-84
2022/07/20 05:11:03;;;;;;;;;;;16.50;99.90;;;;;;5054844;28;19936;-83
2022/07/20 05:13:29;;;;;;;;;;;16.60;99.90;;;;;;5059861;28;19916;-83
2022/07/20 05:15:54;;;;;;;;;;;16.80;99.90;;;;;;5057445;28;19916;-83
2022/07/20 05:18:20;;;;;;;;;;;17.00;99.90;;;;;;5037301;28;20065;-84
2022/07/20 05:20:45;;;;;;;;;;;17.10;99.90;;;;;;5031867;28;20312;-83
2022/07/20 05:23:11;;;;;;;;;;;17.00;99.90;;;;;;5034434;28;19909;-83
2022/07/20 05:25:39;;;;;;;;;;;17.00;99.90;;;;;;5035898;28;19962;-84
2022/07/20 05:28:05;;;;;;;;;;;17.10;99.90;;;;;;5047909;28;19920;-84
2022/07/20 05:30:31;;;;;;;;;;;17.20;99.90;;;;;;5035023;28;20276;-84
2022/07/20 05:32:56;;;;;;;;;;;17.20;99.90;;;;;;5042562;28;19916;-84
2022/07/20 05:35:22;;;;;;;;;;;17.30;99.90;;;;;;5052575;28;19909;-84
2022/07/20 05:37:47;;;;;;;;;;;17.40;99.90;;;;;;5040756;28;20334;-84
2022/07/20 05:40:13;;;;;;;;;;;17.60;99.90;;;;;;5034533;28;19956;-84
2022/07/20 05:42:39;;;;;;;;;;;18.00;99.90;;;;;;5033394;28;19932;-85
2022/07/20 05:45:04;;;;;;;;;;;18.20;99.90;;;;;;5033798;28;20376;-85
2022/07/20 05:47:30;;;;;;;;;;;18.30;99.90;;;;;;5028938;28;19913;-85
2022/07/20 05:49:57;;;;;;;;;;;18.80;99.90;;;;;;5033303;28;19952;-85
2022/07/20 05:52:22;;;;;;;;;;;20.40;99.90;;;;;;5047901;28;19909;-85
2022/07/20 05:54:48;;;;;;;;;;;21.40;99.90;;;;;;5033722;28;19917;-85
2022/07/20 05:57:13;;;;;;;;;;;20.90;99.90;;;;;;5033946;28;19964;-85
2022/07/20 05:59:39;;;;;;;;;;;19.70;99.90;;;;;;5037952;28;19909;-85
2022/07/20 06:02:05;;;;;;;;;;;19.40;99.90;;;;;;5051516;28;20291;-84
2022/07/20 06:04:30;;;;;;;;;;;19.60;99.90;;;;;;5051217;28;19916;-85
2022/07/20 06:06:55;;;;;;;;;;;20.30;99.90;;;;;;5044985;28;20551;-84
2022/07/20 06:09:21;;;;;;;;;;;21.30;99.90;;;;;;5048697;28;20382;-85
2022/07/20 06:11:46;;;;;;;;;;;20.70;99.90;;;;;;5051216;28;19913;-85
2022/07/20 06:14:12;;;;;;;;;;;20.30;99.90;;;;;;5043023;28;20288;-85
2022/07/20 06:16:38;;;;;;;;;;;20.00;99.90;;;;;;5039637;28;19909;-84
2022/07/20 06:19:03;;;;;;;;;;;20.10;99.90;;;;;;5031527;28;19917;-85
2022/07/20 06:21:28;;;;;;;;;;;20.20;99.90;;;;;;5025039;28;19909;-85
2022/07/20 06:23:54;;;;;;;;;;;21.00;99.90;;;;;;5051067;28;20337;-85
2022/07/20 06:26:21;;;;;;;;;;;22.60;99.90;;;;;;5036775;28;19952;-86
2022/07/20 06:28:46;;;;;;;;;;;22.50;99.90;;;;;;5052812;28;20375;-83
2022/07/20 06:31:12;;;;;;;;;;;22.30;99.90;;;;;;5022548;28;19909;-84
2022/07/20 06:33:38;;;;;;;;;;;23.20;99.90;;;;;;5012595;28;19909;-84
2022/07/20 06:36:03;;;;;;;;;;;23.40;99.90;;;;;;5043903;28;19912;-83
2022/07/20 06:38:29;;;;;;;;;;;23.00;99.70;;;;;;5027276;28;19909;-83
2022/07/20 06:40:54;;;;;;;;;;;22.70;99.90;;;;;;5031099;28;20000;-84
2022/07/20 06:43:22;;;;;;;;;;;22.70;99.90;;;;;;5043233;28;19916;-85
2022/07/20 06:45:49;;;;;;;;;;;22.80;99.90;;;;;;5052880;28;19958;-84
2022/07/20 06:48:15;;;;;;;;;;;22.80;99.90;;;;;;5028696;28;19921;-84
2022/07/20 06:50:40;;;;;;;;;;;22.80;97.80;;;;;;5035254;28;19909;-84
2022/07/20 06:53:06;;;;;;;;;;;23.20;95.40;;;;;;5029366;28;19916;-85
2022/07/20 06:55:31;;;;;;;;;;;23.70;93.70;;;;;;5030509;28;19917;-84
2022/07/20 06:57:57;;;;;;;;;;;24.70;92.50;;;;;;5031292;28;20383;-84
2022/07/20 07:00:23;;;;;;;;;;;25.50;85.00;;;;;;5045147;28;19924;-85
2022/07/20 07:02:48;;;;;;;;;;;26.40;83.10;;;;;;5050015;28;20376;-84
2022/07/20 07:05:14;;;;;;;;;;;27.30;82.30;;;;;;5051637;28;20215;-85
2022/07/20 07:07:40;;;;;;;;;;;27.80;77.50;;;;;;5050643;28;20291;-85
2022/07/20 07:10:05;;;;;;;;;;;28.10;76.30;;;;;;5050550;28;19912;-84
2022/07/20 07:12:32;;;;;;;;;;;28.60;74.60;;;;;;5050849;28;19908;-85
2022/07/20 07:14:57;;;;;;;;;;;29.10;70.50;;;;;;5050139;28;19909;-85
2022/07/20 07:17:23;;;;;;;;;;;29.50;66.20;;;;;;5048559;28;20000;-86
2022/07/20 07:19:48;;;;;;;;;;;29.80;63.50;;;;;;5026312;28;20015;-86
2022/07/20 07:22:14;;;;;;;;;;;29.60;64.10;;;;;;5033916;28;19913;-85
2022/07/20 07:24:39;;;;;;;;;;;30.00;62.50;;;;;;5030937;28;20287;-84
2022/07/20 07:27:05;;;;;;;;;;;30.20;63.70;;;;;;5030418;28;19913;-85
2022/07/20 07:29:30;;;;;;;;;;;30.50;62.90;;;;;;5034700;28;19917;-84
2022/07/20 07:31:58;;;;;;;;;;;30.00;64.50;;;;;;5029050;28;19910;-85
2022/07/20 07:34:25;;;;;;;;;;;30.20;64.00;;;;;;5053515;28;19920;-85
2022/07/20 07:36:50;;;;;;;;;;;30.40;60.10;;;;;;5051296;28;20016;-84
2022/07/20 07:39:16;;;;;;;;;;;30.70;61.50;;;;;;5040004;28;19995;-86
2022/07/20 07:41:41;;;;;;;;;;;31.10;58.60;;;;;;5048948;28;19909;-86
2022/07/20 07:44:07;;;;;;;;;;;31.20;57.70;;;;;;5056250;28;19913;-86
2022/07/20 07:46:32;;;;;;;;;;;30.80;58.70;;;;;;5056206;28;19913;-86
2022/07/20 07:48:58;;;;;;;;;;;31.20;61.20;;;;;;5025605;28;19913;-85
2022/07/20 07:51:23;;;;;;;;;;;31.10;59.10;;;;;;5019013;28;19916;-85
2022/07/20 07:53:49;;;;;;;;;;;30.90;59.40;;;;;;5034572;28;19955;-86
2022/07/20 07:56:15;;;;;;;;;;;31.60;56.80;;;;;;5034581;28;19924;-86
2022/07/20 07:58:40;;;;;;;;;;;31.90;59.20;;;;;;5036017;28;19909;-85
2022/07/20 08:01:05;;;;;;;;;;;32.50;59.50;;;;;;5024948;28;20266;-86
2022/07/20 08:03:31;;;;;;;;;;;32.80;55.50;;;;;;5026043;28;19909;-85
2022/07/20 08:05:57;;;;;;;;;;;33.00;57.60;;;;;;5015918;28;19909;-85
2022/07/20 08:08:22;;;;;;;;;;;32.60;55.60;;;;;;5025790;28;19914;-85
2022/07/20 08:10:48;;;;;;;;;;;32.80;56.90;;;;;;5035798;28;19913;-86
2022/07/20 08:13:13;;;;;;;;;;;32.30;58.20;;;;;;5034121;28;20363;-88
2022/07/20 08:15:39;;;;;;;;;;;32.50;57.50;;;;;;5036095;28;19924;-86
2022/07/20 08:18:05;;;;;;;;;;;32.80;58.20;;;;;;5033394;28;19949;-87
2022/07/20 08:20:31;;;;;;;;;;;32.90;58.30;;;;;;5024578;28;19955;-86
2022/07/20 08:22:56;;;;;;;;;;;34.00;60.40;;;;;;5044092;28;19909;-86
2022/07/20 08:25:22;;;;;;;;;;;34.00;57.50;;;;;;5054120;28;19915;-87
2022/07/20 08:27:48;;;;;;;;;;;33.90;55.60;;;;;;5051417;28;20380;-84
2022/07/20 08:30:13;;;;;;;;;;;33.70;56.60;;;;;;5037767;28;19913;-87
2022/07/20 08:32:39;;;;;;;;;;;34.20;58.20;;;;;;5044780;28;20003;-86
2022/07/20 08:35:05;;;;;;;;;;;34.20;54.70;;;;;;5034860;28;19910;-88
2022/07/20 08:37:30;;;;;;;;;;;35.00;51.80;;;;;;5027932;28;19917;-87
2022/07/20 08:39:56;;;;;;;;;;;35.20;53.10;;;;;;5026072;28;19916;-87
2022/07/20 08:42:22;;;;;;;;;;;34.70;55.40;;;;;;5015142;28;20475;-86
2022/07/20 08:44:47;;;;;;;;;;;34.90;56.40;;;;;;5014107;28;20276;-86
2022/07/20 08:47:14;;;;;;;;;;;35.20;52.40;;;;;;5019864;28;19913;-88
2022/07/20 08:49:44;;;;;;;;;;;35.90;55.40;;;;;;5018919;28;19921;-86
2022/07/20 08:52:09;;;;;;;;;;;36.70;54.80;;;;;;5043440;28;20395;-86
2022/07/20 08:54:36;;;;;;;;;;;36.50;51.00;;;;;;5047842;28;20012;-87
2022/07/20 08:57:16;;;;;;;;;;;36.90;50.30;;;;;;5053080;28;19915;-87
2022/07/20 08:59:45;;;;;;;;;;;37.20;51.50;;;;;;5034168;28;19909;-88
2022/07/20 09:02:11;;;;;;;;;;;36.80;45.70;;;;;;5043189;28;19915;-87
2022/07/20 09:04:59;;;;;;;;;;;35.90;45.90;;;;;;5039010;28;19915;-86
2022/07/20 09:08:19;;;;;;;;;;;37.40;48.40;;;;;;5045857;28;19912;-87
2022/07/20 09:11:01;;;;;;;;;;;37.30;53.10;;;;;;5014555;28;19917;-88
2022/07/20 09:13:31;;;;;;;;;;;38.00;46.40;;;;;;5044981;28;20372;-87
2022/07/20 09:15:57;;;;;;;;;;;38.50;49.60;;;;;;5052423;28;19940;-85
2022/07/20 09:18:27;;;;;;;;;;;38.60;49.60;;;;;;5030240;28;19920;-86
2022/07/20 09:20:53;;;;;;;;;;;38.30;46.80;;;;;;5022330;28;20368;-86
2022/07/20 09:23:26;;;;;;;;;;;38.40;44.50;;;;;;5033827;28;19936;-85
2022/07/20 09:26:15;;;;;;;;;;;37.90;49.60;;;;;;5036978;28;19916;-85
2022/07/20 09:28:40;;;;;;;;;;;38.30;46.40;;;;;;5043005;28;20356;-85
2022/07/20 09:31:12;;;;;;;;;;;37.40;45.30;;;;;;5058070;28;19914;-84
2022/07/20 09:33:37;;;;;;;;;;;37.70;50.50;;;;;;5048722;28;19909;-87
2022/07/20 09:36:04;;;;;;;;;;;38.10;47.60;;;;;;5074279;28;19913;-88
2022/07/20 09:38:32;;;;;;;;;;;38.40;46.80;;;;;;5048546;28;19913;-87
2022/07/20 09:40:59;;;;;;;;;;;38.40;45.90;;;;;;5059871;28;19965;-86
2022/07/20 09:43:25;;;;;;;;;;;38.50;47.30;;;;;;5052691;28;19943;-88
2022/07/20 09:45:50;;;;;;;;;;;38.20;48.00;;;;;;5034696;28;20504;-86
2022/07/20 09:48:20;;;;;;;;;;;38.10;45.90;;;;;;5032913;28;19917;-86
2022/07/20 09:50:45;;;;;;;;;;;37.00;42.70;;;;;;5020590;28;20430;-86
2022/07/20 09:53:11;;;;;;;;;;;37.00;45.40;;;;;;5031484;28;20007;-87
2022/07/20 09:55:37;;;;;;;;;;;37.90;44.80;;;;;;5037160;28;19917;-87
2022/07/20 09:58:06;;;;;;;;;;;37.00;44.30;;;;;;5054059;28;19909;-87
2022/07/20 10:00:32;;;;;;;;;;;37.30;42.60;;;;;;5045146;28;19996;-86
2022/07/20 10:02:59;;;;;;;;;;;37.90;48.30;;;;;;5014431;28;19917;-86
2022/07/20 10:05:28;;;;;;;;;;;38.10;43.00;;;;;;5034904;28;20371;-86
2022/07/20 10:07:53;;;;;;;;;;;38.60;44.60;;;;;;5034975;28;19924;-86
2022/07/20 10:10:19;;;;;;;;;;;37.80;40.70;;;;;;5032486;28;19909;-86
2022/07/20 10:12:56;;;;;;;;;;;37.80;44.80;;;;;;5032894;28;19916;-87
2022/07/20 10:15:27;;;;;;;;;;;38.30;48.20;;;;;;5030571;28;19913;-86
2022/07/20 10:17:53;;;;;;;;;;;38.40;43.50;;;;;;5033580;28;20368;-86
2022/07/20 10:20:30;;;;;;;;;;;38.80;43.60;;;;;;5016877;28;19909;-87
2022/07/20 10:23:21;;;;;;;;;;;39.10;43.50;;;;;;5012812;28;19933;-87
2022/07/20 10:25:47;;;;;;;;;;;38.90;40.30;;;;;;5013868;28;20368;-87
2022/07/20 10:28:36;;;;;;;;;;;38.60;43.20;;;;;;5016838;28;19913;-86
2022/07/20 10:31:05;;;;;;;;;;;38.60;42.90;;;;;;5033693;28;19909;-85
2022/07/20 10:33:38;;;;;;;;;;;38.60;46.80;;;;;;5033197;28;19932;-86
2022/07/20 10:38:56;;;;;;;;;;;37.70;43.50;;;;;;5050860;28;19916;-85
2022/07/20 10:41:36;;;;;;;;;;;38.30;42.10;;;;;;5045688;28;19909;-85
2022/07/20 10:44:19;;;;;;;;;;;39.00;43.20;;;;;;5033207;28;19909;-86
2022/07/20 10:46:45;;;;;;;;;;;39.90;39.30;;;;;;5032956;28;19909;-86
2022/07/20 10:49:11;;;;;;;;;;;39.40;43.70;;;;;;5033887;28;19956;-85
2022/07/20 10:51:36;;;;;;;;;;;39.30;42.30;;;;;;5045387;28;20012;-86
2022/07/20 10:54:21;;;;;;;;;;;39.50;43.30;;;;;;5030981;28;19909;-86
2022/07/20 10:56:46;;;;;;;;;;;40.00;42.80;;;;;;5035015;28;19943;-86
2022/07/20 10:59:12;;;;;;;;;;;40.20;42.70;;;;;;5029951;28;20531;-85
2022/07/20 11:01:37;;;;;;;;;;;39.50;41.50;;;;;;5011615;28;19909;-86
2022/07/20 11:04:10;;;;;;;;;;;39.10;41.10;;;;;;5011047;28;19917;-86
2022/07/20 11:06:38;;;;;;;;;;;39.00;42.90;;;;;;5016230;28;19941;-86
2022/07/20 11:09:04;;;;;;;;;;;39.00;39.40;;;;;;5052466;28;19917;-85
2022/07/20 11:11:31;;;;;;;;;;;39.10;40.40;;;;;;5042753;28;19916;-86
2022/07/20 11:13:56;;;;;;;;;;;38.20;43.00;;;;;;5032482;28;19917;-88
2022/07/20 11:16:26;;;;;;;;;;;38.70;43.10;;;;;;5032981;28;19913;-86
2022/07/20 11:18:53;;;;;;;;;;;38.90;41.40;;;;;;5026476;28;19910;-86
2022/07/20 11:21:26;;;;;;;;;;;38.80;39.60;;;;;;5029957;28;19909;-86
2022/07/20 11:23:52;;;;;;;;;;;38.90;41.30;;;;;;5031538;28;19954;-86
2022/07/20 11:26:19;;;;;;;;;;;39.10;43.80;;;;;;5047176;28;19913;-85
2022/07/20 11:29:04;;;;;;;;;;;39.30;43.00;;;;;;5041247;28;20372;-88
2022/07/20 11:31:30;;;;;;;;;;;39.90;42.30;;;;;;5025424;28;19916;-86
2022/07/20 11:33:57;;;;;;;;;;;39.50;40.60;;;;;;5030833;28;20346;-86
2022/07/20 11:36:27;;;;;;;;;;;38.40;42.90;;;;;;5037464;28;20099;-87
2022/07/20 11:39:13;;;;;;;;;;;39.50;45.80;;;;;;5038565;28;19909;-85
2022/07/20 11:41:42;;;;;;;;;;;39.30;47.40;;;;;;5012204;28;19917;-87
2022/07/20 11:44:15;;;;;;;;;;;39.60;41.60;;;;;;5011063;28;20318;-86
2022/07/20 11:46:42;;;;;;;;;;;39.60;42.70;;;;;;5027698;28;20394;-86
2022/07/20 11:49:16;;;;;;;;;;;38.70;43.50;;;;;;5022539;28;19945;-87
2022/07/20 11:51:48;;;;;;;;;;;39.10;40.20;;;;;;5030849;28;20003;-87
2022/07/20 11:54:19;;;;;;;;;;;37.80;40.70;;;;;;5033837;28;20067;-88
2022/07/20 11:56:44;;;;;;;;;;;38.20;42.10;;;;;;5051157;28;19971;-86
2022/07/20 11:59:09;;;;;;;;;;;38.20;41.20;;;;;;5052584;28;20001;-87
2022/07/20 12:01:53;;;;;;;;;;;37.70;43.50;;;;;;5038668;28;19909;-88
2022/07/20 12:04:19;;;;;;;;;;;37.40;41.30;;;;;;5030273;28;19916;-86
2022/07/20 12:06:45;;;;;;;;;;;38.20;42.20;;;;;;5030928;28;19913;-86
2022/07/20 12:09:11;;;;;;;;;;;38.40;42.10;;;;;;5031368;28;19920;-85
2022/07/20 12:11:56;;;;;;;;;;;38.00;41.10;;;;;;5033475;28;20375;-85
2022/07/20 12:14:35;;;;;;;;;;;38.80;40.60;;;;;;5038420;28;20335;-86
2022/07/20 12:17:11;;;;;;;;;;;38.90;40.40;;;;;;5051581;28;20435;-85
2022/07/20 12:19:37;;;;;;;;;;;39.40;39.60;;;;;;5020439;28;20398;-87
2022/07/20 12:22:03;;;;;;;;;;;39.80;40.90;;;;;;5017785;28;20375;-88
2022/07/20 12:24:28;;;;;;;;;;;38.30;39.70;;;;;;5047016;28;20004;-87
2022/07/20 12:27:04;;;;;;;;;;;36.70;40.90;;;;;;5054490;28;19932;-88
2022/07/20 12:29:30;;;;;;;;;;;36.90;42.20;;;;;;5038408;28;19945;-87
2022/07/20 12:32:08;;;;;;;;;;;36.40;41.90;;;;;;5026291;28;19913;-88
2022/07/20 12:34:53;;;;;;;;;;;35.50;45.00;;;;;;5014504;28;19914;-89
2022/07/20 12:37:19;;;;;;;;;;;34.60;45.80;;;;;;5014593;28;19909;-87
2022/07/20 12:39:53;;;;;;;;;;;34.20;46.80;;;;;;5013978;28;19916;-85
2022/07/20 12:42:20;;;;;;;;;;;33.70;47.70;;;;;;5031053;28;19909;-85
2022/07/20 12:44:47;;;;;;;;;;;33.30;49.70;;;;;;5053625;28;19913;-85
2022/07/20 12:47:13;;;;;;;;;;;33.10;48.10;;;;;;5049182;28;19909;-86
2022/07/20 12:50:32;;;;;;;;;;;32.90;48.50;;;;;;5021059;28;19913;-86
2022/07/20 12:53:03;;;;;;;;;;;32.70;48.70;;;;;;5012893;28;19949;-87
2022/07/20 12:58:32;;;;;;;;;;;32.20;50.60;;;;;;5015549;28;19916;-87
2022/07/20 13:01:11;;;;;;;;;;;31.70;57.00;;;;;;5028601;28;19909;-88
2022/07/20 13:03:47;;;;;;;;;;;30.00;66.50;;;;;;5047220;28;20314;-86
2022/07/20 13:06:13;;;;;;;;;;;28.60;78.30;;;;;;5053616;28;19909;-87
2022/07/20 13:08:38;;;;;;;;;;;27.00;89.70;;;;;;5053367;28;20380;-87
2022/07/20 13:11:04;;;;;;;;;;;26.50;89.90;;;;;;5038172;28;19959;-85
2022/07/20 13:13:30;;;;;;;;;;;26.20;94.80;;;;;;5033013;28;19909;-86
2022/07/20 13:15:55;;;;;;;;;;;23.90;99.90;;;;;;5035116;28;19932;-88
2022/07/20 13:18:21;;;;;;;;;;;23.20;99.90;;;;;;5027812;28;19916;-86
2022/07/20 13:21:02;;;;;;;;;;;23.30;99.90;;;;;;5013508;28;20328;-88
2022/07/20 13:23:32;;;;;;;;;;;23.70;99.90;;;;;;5021439;28;19909;-85
2022/07/20 13:25:58;;;;;;;;;;;24.10;99.90;;;;;;5037047;28;19910;-85
2022/07/20 13:28:26;;;;;;;;;;;24.50;99.90;;;;;;5023384;28;19917;-86
2022/07/20 13:30:55;;;;;;;;;;;24.70;99.90;;;;;;5031786;28;19915;-85
2022/07/20 13:33:21;;;;;;;;;;;25.10;99.90;;;;;;5031458;28;20000;-85
2022/07/20 13:35:46;;;;;;;;;;;25.70;99.90;;;;;;5031447;28;20004;-86
2022/07/20 13:38:26;;;;;;;;;;;26.30;99.90;;;;;;5049241;28;19955;-86
2022/07/20 13:40:52;;;;;;;;;;;27.10;99.90;;;;;;5042033;28;19917;-86
2022/07/20 13:46:29;;;;;;;;;;;28.00;99.90;;;;;;5053851;28;19916;-88
2022/07/20 13:49:04;;;;;;;;;;;27.70;99.90;;;;;;5004908;28;19913;-86
2022/07/20 13:51:30;;;;;;;;;;;27.40;99.90;;;;;;5033186;28;19918;-87
2022/07/20 13:53:55;;;;;;;;;;;27.60;99.90;;;;;;5046114;28;19963;-88
2022/07/20 13:59:44;;;;;;;;;;;27.60;99.90;;;;;;4984209;28;20009;-87
2022/07/20 14:02:17;;;;;;;;;;;27.80;99.90;;;;;;4973505;28;20008;-88
2022/07/20 14:04:45;;;;;;;;;;;28.10;99.90;;;;;;5004171;28;19966;-87
2022/07/20 14:07:44;;;;;;;;;;;;;;;;;;;;;
2022/07/20 14:10:20;;;;;;;;;;;28.50;99.90;;;;;;4960423;28;19936;-90
2022/07/20 14:15:45;;;;;;;;;;;28.90;99.90;;;;;;5050874;28;19979;-75
2022/07/20 14:18:11;;;;;;;;;;;28.70;99.90;;;;;;5037366;28;19909;-71
2022/07/20 14:20:37;;;;;;;;;;;29.10;99.90;;;;;;5040966;28;19909;-75
2022/07/20 14:23:02;;;;;;;;;;;31.30;99.00;;;;;;5048947;28;19919;-76
2022/07/20 14:25:28;;;;;;;;;;;32.50;97.10;;;;;;5051360;28;19936;-75
2022/07/20 14:27:53;;;;;;;;;;;31.20;96.40;;;;;;5048795;28;19962;-74
2022/07/20 14:30:19;;;;;;;;;;;33.60;95.70;;;;;;5050723;28;19908;-76
2022/07/20 14:32:44;;;;;;;;;;;34.50;90.60;;;;;;5050823;28;19917;-76
2022/07/20 14:35:10;;;;;;;;;;;32.30;90.20;;;;;;5046734;28;20011;-75
2022/07/20 14:37:36;;;;;;;;;;;30.70;93.60;;;;;;5050961;28;20007;-75
2022/07/20 14:40:03;;;;;;;;;;;29.50;98.40;;;;;;5052393;28;20277;-74